Texel International Airport

EHTX · Noord-Holland, Nederland

METAR historie EHTX · Texel International Airport

Hieronder zie je METAR's van de afgelopen dagen. Kies een jaar om door oudere METAR's te bladeren, vanaf het jaar 2007.

20 april 2024

Tijd Code Weer Temp. Zicht Plafond Wind METAR/SPECI
12:25
M
9 °C 10 km+ 1.600 ft 310° 310° 18 kt METAR EHKD 201025Z AUTO 31018KT 270V340 9999 BKN016 BKN021 BKN028 09/05 Q1021 WHT TEMPO 4500 -SHRA SCT015 SCT020CB BKN022
12:13
M
9 °C 10 km+ 2.200 ft 310° 310° 17 kt METAR EHKD 201013Z AUTO 31017KT 270V350 9999 SCT016 BKN022 BKN026 09/05 Q1021 WHT TEMPO 4500 -SHRA SCT015 SCT020CB BKN022
12:09
V
9 °C 10 km+ - 310° 310° 16 kt METAR EHKD 201009Z AUTO 31016KT 270V350 9999 SCT017 SCT026 09/05 Q1021 WHT TEMPO 4500 -SHRA SCT015 SCT020CB BKN022
12:05
V
9 °C 10 km+ - 310° 310° 15 kt METAR EHKD 201005Z AUTO 31015KT 280V360 9999 FEW018 SCT021 09/05 Q1021 WHT TEMPO 4500 -SHRA SCT015 SCT020CB BKN022
11:57
V
9 °C 10 km+ 3.300 ft 320° 320° 15 kt METAR EHKD 200957Z AUTO 32015KT 280V010 9999 FEW021 SCT025 BKN033 09/04 Q1021 BLU TEMPO 4500 -SHRA SCT015 SCT020CB BKN022
11:32
V
9 °C 10 km+ 7.000 ft 320° 320° 18 kt METAR EHKD 200932Z AUTO 32018KT 280V030 9999 FEW020 SCT023 OVC070 09/04 Q1021 WHT TEMPO 4500 -SHRA SCT015 SCT020CB BKN022
11:27
V
9 °C 10 km+ 7.000 ft 320° 320° 16 kt METAR EHKD 200927Z AUTO 32016KT 280V030 9999 FEW021 BKN070 09/04 Q1021 BLU TEMPO 4500 -SHRA SCT015 SCT020CB BKN022
11:25
V
9 °C 10 km+ 7.000 ft 320° 320° 16 kt METAR EHKD 200925Z AUTO 32016KT 280V030 9999 FEW020 SCT023 BKN070 09/04 Q1021 WHT TEMPO 4500 -SHRA SCT015 SCT020CB BKN022
11:15
M
8 °C 10 km+ 1.800 ft 320° 320° 15 kt METAR EHKD 200915Z AUTO 32015KT 270V020 9999 BKN018 BKN022 BKN028 08/04 Q1021 WHT TEMPO 4500 -SHRA SCT015 SCT020CB BKN022
11:11
V
8 °C 10 km+ 3.500 ft 320° 320° 15 kt METAR EHKD 200911Z AUTO 32015KT 270V020 9999 SCT018 SCT028 BKN035 08/04 Q1021 WHT TEMPO 4500 -SHRA SCT015 SCT020CB BKN022
10:55
V
8 °C 10 km+ 3.100 ft 320° 320° 16 kt METAR EHKD 200855Z AUTO 32016KT 270V010 9999 FEW023 SCT027 BKN031 08/03 Q1021 BLU TEMPO 4500 -SHRA SCT015 SCT020CB BKN022
10:42
V
9 °C 10 km+ 3.500 ft 320° 320° 15 - 25 kt METAR EHKD 200842Z AUTO 32015G25KT 280V010 9999 FEW020 SCT025 BKN035 09/05 Q1021 BLU TEMPO 4500 -SHRA SCT015 SCT020CB BKN022
10:31
M
8 °C 10 km+ 2.800 ft 330° 330° 12 - 23 kt METAR EHKD 200831Z AUTO 33012G23KT 280V020 9999 FEW019 SCT023 BKN028 08/04 Q1021 WHT TEMPO 4500 -SHRA SCT015 SCT020CB BKN022
10:25
M
6 °C 9 km 2.800 ft 330° 330° 13 - 24 kt METAR EHKD 200825Z AUTO 33013G24KT 290V030 9000 -RA FEW019 SCT024 BKN028 06/03 Q1021 RERA REDZ WHT TEMPO 4500 -SHRA SCT015 SCT020CB BKN022
10:14
M
7 °C 9 km 2.800 ft 340° 340° 13 - 24 kt METAR EHKD 200814Z AUTO 34013G24KT 290V030 9000 DZRA FEW019 SCT022 BKN028 07/03 Q1021 WHT TEMPO 4500 -SHRA SCT015 SCT020CB BKN022
10:09
M
7 °C 6 km 2.200 ft 340° 340° 13 - 24 kt METAR EHKD 200809Z AUTO 34013G24KT 290V030 6000 -RA SCT019 BKN022 OVC027 07/02 Q1021 WHT TEMPO 4500 -SHRA SCT015 SCT020CB BKN022
10:05
M
8 °C 10 km+ 2.100 ft 340° 340° 13 kt METAR EHKD 200805Z AUTO 34013KT 290V020 9999 BKN021 BKN026 BKN029 08/03 Q1021 WHT TEMPO 4500 -SHRA SCT015 SCT020CB BKN022
10:01
V
8 °C 10 km+ - 330° 330° 13 kt METAR EHKD 200801Z AUTO 33013KT 290V020 9999 SCT022 SCT059 08/03 Q1021 WHT TEMPO 4500 -SHRA SCT015 SCT020CB BKN022
09:55
V
8 °C 10 km+ - 330° 330° 12 - 24 kt METAR EHKD 200755Z AUTO 33012G24KT 290V020 9999 FEW023 SCT027 08/03 Q1021 BLU TEMPO 4500 -SHRA SCT015 SCT020CB BKN022
09:38
V
7 °C 10 km+ 4.600 ft 340° 340° 13 kt METAR EHKD 200738Z AUTO 34013KT 290V030 9999 FEW021 SCT035 BKN046 07/02 Q1021 BLU TEMPO 4500 -SHRA SCT015 SCT020CB BKN022
09:27
M
9 °C 10 km+ 2.400 ft 340° 340° 12 kt METAR EHKD 200727Z AUTO 34012KT 290V020 9999 BKN024 BKN028 BKN036 09/03 Q1020 WHT TEMPO 4500 -SHRA SCT015 SCT020CB BKN022
09:25
V
8 °C 10 km+ - 340° 340° 11 kt METAR EHKD 200725Z AUTO 34011KT 240V030 9999 SCT024 SCT036 08/03 Q1020 WHT TEMPO 4500 -SHRA SCT015 SCT020CB BKN022
09:10
V
8 °C 10 km+ 3.300 ft 340° 340° 13 - 23 kt METAR EHKD 200710Z AUTO 34013G23KT 280V040 9999 FEW023 SCT028 BKN033 08/02 Q1020 BLU TEMPO 4500 -SHRA SCT015 SCT020CB BKN022
09:00
V
8 °C 10 km+ - 340° 340° 11 kt METAR EHKD 200700Z AUTO 34011KT 270V040 9999 SCT023 SCT034 08/03 Q1020 WHT TEMPO 4500 -SHRA SCT015 SCT020CB BKN022
08:25
V
7 °C 10 km+ 6.000 ft 340° 340° 11 - 22 kt METAR EHKD 200625Z AUTO 34011G22KT 290V030 9999 FEW024 SCT029 BKN060 07/02 Q1020 BLU TEMPO 4500 -SHRA SCT015 SCT020CB BKN022
07:55
V
6 °C 10 km+ 4.200 ft 340° 340° 9 kt METAR EHKD 200555Z AUTO 34009KT 300V040 9999 FEW024 SCT034 BKN042 06/03 Q1020 BLU TEMPO 4500 -SHRA SCT015 SCT020CB BKN022
07:36
M
6 °C 10 km+ 2.900 ft 010° 010° 8 kt METAR EHKD 200536Z AUTO 01008KT 320V080 9999 FEW018 SCT025 BKN029 06/03 Q1019 BLU TEMPO 4500 -SHRA SCT015 SCT020CB BKN022
07:27
M
5 °C 8 km 2.100 ft 360° 360° 14 - 29 kt METAR EHKD 200527Z AUTO 36014G29KT 310V050 8000 -SHRA FEW017 BKN021 OVC025 05/02 Q1020 WHT TEMPO 4500 -SHRA SCT015 SCT020CB BKN022
07:25
M
5 °C 5 km 2.200 ft 340° 340° 16 - 29 kt METAR EHKD 200525Z AUTO 34016G29KT 290V030 5000 -RA FEW015CB BKN022 BKN025 05/02 Q1019 WHT TEMPO 4500 -SHRA SCT015 SCT020CB BKN022
07:19
V
6 °C 10 km+ 5.500 ft 330° 330° 15 - 29 kt METAR EHKD 200519Z AUTO 33015G29KT 280V020 9999 FEW015CB SCT022 BKN055 06/02 Q1019 WHT TEMPO 4500 -SHRA SCT015 SCT020CB BKN022
06:57
V
6 °C 10 km+ 4.100 ft 330° 330° 13 kt METAR EHKD 200457Z AUTO 33013KT 290V040 9999 FEW017 SCT031 BKN041 06/02 Q1019 BLU TEMPO 4500 -SHRA SCT015 SCT020CB BKN022
06:44
M
6 °C 10 km+ 2.500 ft 330° 330° 12 - 22 kt METAR EHKD 200444Z AUTO 33012G22KT 300V040 9999 SCT015CB SCT021 BKN025 06/03 Q1019 WHT TEMPO 4500 -SHRA SCT015 SCT020CB BKN022
06:38
V
6 °C 10 km+ - 340° 340° 11 kt METAR EHKD 200438Z AUTO 34011KT 300V040 9999 FEW015 SCT022 06/03 Q1019 WHT TEMPO 4500 -SHRA SCT015 SCT020CB BKN022
06:25
V
6 °C 10 km+ 3.700 ft 350° 350° 12 - 24 kt METAR EHKD 200425Z AUTO 35012G24KT 290V030 9999 FEW016 SCT032 BKN037 06/02 Q1019 BLU TEMPO 4500 -SHRA SCT015 SCT020CB BKN022
05:55
V
6 °C 10 km+ - 340° 340° 11 kt METAR EHKD 200355Z AUTO 34011KT 290V040 9999 FEW038 SCT077 06/03 Q1018 BLU
05:36
M
7 °C 10 km+ 2.800 ft 340° 340° 12 kt METAR EHKD 200336Z AUTO 34012KT 290V040 9999 SCT021 BKN028 BKN032 07/02 Q1018 WHT
05:25
V
7 °C 10 km+ 3.100 ft 340° 340° 11 kt METAR EHKD 200325Z AUTO 34011KT 280V040 9999 FEW024 SCT028 BKN031 07/02 Q1018 REDZ BLU
05:11
V
7 °C 10 km+ 3.200 ft 350° 350° 10 kt METAR EHKD 200311Z AUTO 35010KT 290V030 9999 FEW024 SCT027 BKN032 07/02 Q1018 BLU
05:01
M
7 °C 10 km+ 2.200 ft 350° 350° 11 kt METAR EHKD 200301Z AUTO 35011KT 280V040 9999 BKN022 BKN026 BKN033 07/02 Q1018 WHT
04:57
V
7 °C 10 km+ 3.400 ft 340° 340° 11 kt METAR EHKD 200257Z AUTO 34011KT 280V040 9999 FEW018CB SCT022 BKN034 07/02 Q1018 WHT
04:40
V
7 °C 10 km+ 3.200 ft 340° 340° 13 - 24 kt METAR EHKD 200240Z AUTO 34013G24KT 290V030 9999 FEW017CB SCT026 BKN032 07/02 Q1017 BLU
04:29
V
7 °C 10 km+ 7.200 ft 340° 340° 11 kt METAR EHKD 200229Z AUTO 34011KT 290V040 9999 SCT023 OVC072 07/02 Q1017 WHT
04:25
V
7 °C 10 km+ 7.000 ft 340° 340° 11 kt METAR EHKD 200225Z AUTO 34011KT 290V030 9999 OVC070 07/02 Q1017 BLU
03:57
V
7 °C 10 km+ 3.600 ft 340° 340° 11 kt METAR EHKD 200157Z AUTO 34011KT 280V020 9999 FEW020 SCT027 BKN036 07/03 Q1017 BLU
03:44
M
7 °C 10 km+ 3.000 ft 330° 330° 13 kt METAR EHKD 200144Z AUTO 33013KT 290V020 9999 FEW019 SCT022 BKN030 07/03 Q1017 WHT
03:40
M
7 °C 10 km+ 2.900 ft 330° 330° 13 kt METAR EHKD 200140Z AUTO 33013KT 290V040 9999 FEW019 SCT025 BKN029 07/03 Q1017 BLU
03:35
M
7 °C 10 km+ 2.800 ft 340° 340° 12 - 22 kt METAR EHKD 200135Z AUTO 34012G22KT 280V040 9999 SCT019 SCT024 BKN028 07/03 Q1017 WHT
03:30
M
7 °C 10 km+ 2.800 ft 340° 340° 11 - 22 kt METAR EHKD 200130Z AUTO 34011G22KT 280V030 9999 FEW019 SCT024 BKN028 07/03 Q1017 WHT
03:25
V
7 °C 10 km+ 3.600 ft 340° 340° 11 kt METAR EHKD 200125Z AUTO 34011KT 300V030 9999 FEW025 SCT028 BKN036 07/02 Q1017 BLU
02:55
V
7 °C 10 km+ 6.200 ft 340° 340° 12 kt METAR EHKD 200055Z AUTO 34012KT 300V020 9999 FEW038 OVC062 07/02 Q1017 BLU
02:25
V
7 °C 10 km+ 4.300 ft 340° 340° 13 - 23 kt METAR EHKD 200025Z AUTO 34013G23KT 300V030 9999 FEW026 BKN043 OVC066 07/02 Q1016 BLU
02:05
V
7 °C 10 km+ 3.700 ft 340° 340° 10 kt METAR EHKD 200005Z AUTO 34010KT 290V030 9999 SCT023 SCT031 BKN037 07/02 Q1016 WHT
01:55
V
7 °C 10 km+ 6.400 ft 340° 340° 11 - 21 kt METAR EHKD 192355Z AUTO 34011G21KT 290V030 9999 FEW027 SCT048 OVC064 07/01 Q1016 BLU
01:25
V
7 °C 10 km+ 4.000 ft 340° 340° 13 kt METAR EHKD 192325Z AUTO 34013KT 290V030 9999 FEW024 SCT031 BKN040 07/02 Q1016 BLU
01:10
M
7 °C 10 km+ 2.700 ft 340° 340° 12 - 23 kt METAR EHKD 192310Z AUTO 34012G23KT 290V030 9999 SCT022 BKN027 BKN031 07/02 Q1016 WHT
01:05
V
7 °C 10 km+ 3.200 ft 340° 340° 11 kt METAR EHKD 192305Z AUTO 34011KT 290V030 9999 SCT023 SCT028 BKN032 07/02 Q1016 WHT
00:55
V
7 °C 10 km+ 4.800 ft 340° 340° 13 kt METAR EHKD 192255Z AUTO 34013KT 300V040 9999 FEW025 SCT043 OVC048 07/02 Q1016 BLU
00:39
M
7 °C 10 km+ 3.000 ft 350° 350° 15 - 27 kt METAR EHKD 192239Z AUTO 35015G27KT 290V050 9999 FEW017CB SCT026 BKN030 07/03 Q1016 BLU
00:25
M
7 °C 10 km+ 2.400 ft 340° 340° 14 - 25 kt METAR EHKD 192225Z AUTO 34014G25KT 290V020 9999 FEW018CB BKN024 OVC027 07/02 Q1015 WHT
00:14
M
7 °C 10 km+ 2.500 ft 340° 340° 15 - 25 kt METAR EHKD 192214Z AUTO 34015G25KT 280V030 9999 FEW017CB SCT021 BKN025 BKN033 07/03 Q1015 WHT
00:05
M
7 °C 10 km+ 2.600 ft 340° 340° 14 kt METAR EHKD 192205Z AUTO 34014KT 280V030 9999 FEW017CB SCT023 BKN026 07/03 Q1015 WHT

19 april 2024

Tijd Code Weer Temp. Zicht Plafond Wind METAR/SPECI
23:55
M
7 °C 10 km+ 2.700 ft 350° 350° 14 - 24 kt METAR EHKD 192155Z AUTO 35014G24KT 290V050 9999 FEW017CB BKN027 OVC031 07/03 Q1015 BLU
23:31
M
7 °C 10 km+ 1.900 ft 340° 340° 16 kt METAR EHKD 192131Z AUTO 34016KT 280V030 9999 FEW017CB BKN019 BKN025 OVC029 07/03 Q1015 WHT
23:27
M
7 °C 10 km+ 2.600 ft 340° 340° 16 kt METAR EHKD 192127Z AUTO 34016KT 280V030 9999 SCT020 BKN026 OVC030 07/03 Q1015 WHT
23:14
M
7 °C 10 km+ 2.500 ft 340° 340° 15 kt METAR EHKD 192114Z AUTO 34015KT 290V030 9999 SCT021 BKN025 OVC029 07/03 Q1015 WHT
23:08
M
7 °C 10 km+ 2.800 ft 340° 340° 15 - 25 kt METAR EHKD 192108Z AUTO 34015G25KT 280V030 9999 FEW016CB SCT021 OVC028 07/03 Q1015 WHT
23:04
M
7 °C 10 km+ 2.800 ft 340° 340° 15 - 25 kt METAR EHKD 192104Z AUTO 34015G25KT 280V030 9999 FEW015CB SCT025 OVC028 07/03 Q1014 BLU
22:55
V
7 °C 10 km+ 3.100 ft 340° 340° 15 - 27 kt METAR EHKD 192055Z AUTO 34015G27KT 280V030 9999 FEW015CB SCT019 BKN031 07/03 Q1014 WHT
22:37
V
7 °C 10 km+ 3.500 ft 340° 340° 15 - 26 kt METAR EHKD 192037Z AUTO 34015G26KT 290V050 9999 FEW015CB SCT026 BKN035 07/04 Q1014 BLU
22:32
M
7 °C 10 km+ 2.900 ft 340° 340° 16 - 27 kt METAR EHKD 192032Z AUTO 34016G27KT 280V030 9999 FEW015CB SCT020 BKN029 07/04 Q1014 WHT
22:25
V
7 °C 10 km+ 3.100 ft 330° 330° 13 kt METAR EHKD 192025Z AUTO 33013KT 280V020 9999 FEW015CB BKN031 07/04 Q1014 RERA BLU
22:18
M
7 °C 10 km+ 2.800 ft 340° 340° 14 - 28 kt METAR EHKD 192018Z AUTO 34014G28KT 290V030 9999 -RA FEW015CB BKN028 OVC031 07/04 Q1014 BLU
22:10
M
7 °C 6 km 2.000 ft 340° 340° 17 - 28 kt METAR EHKD 192010Z AUTO 34017G28KT 290V040 6000 RA FEW015CB SCT016 BKN020 BKN026 07/04 Q1014 WHT
22:06
I
8 °C 4 km 1.600 ft 340° 340° 16 - 27 kt METAR EHKD 192006Z AUTO 34016G27KT 290V040 4000 -UP FEW015CB BKN016 BKN020 OVC031 08/04 Q1014 GRN
21:58
M
8 °C 10 km+ 2.900 ft 340° 340° 15 - 26 kt METAR EHKD 191958Z AUTO 34015G26KT 290V040 9999 SCT018 BKN029 BKN033 08/04 Q1014 WHT
22:02
M
8 °C 10 km+ 1.900 ft 340° 340° 15 - 26 kt METAR EHKD 192002Z AUTO 34015G26KT 290V040 9999 SCT016 BKN019 BKN029 08/04 Q1014 WHT
21:55
M
7 °C 10 km+ 3.000 ft 350° 350° 15 - 26 kt METAR EHKD 191955Z AUTO 35015G26KT 290V050 9999 -DZ FEW019 SCT026 BKN030 07/04 Q1014 BLU
21:44
M
8 °C 10 km+ 3.000 ft 340° 340° 15 - 27 kt METAR EHKD 191944Z AUTO 34015G27KT 290V040 9999 FEW019 SCT024 BKN030 08/04 Q1014 WHT
21:25
V
8 °C 10 km+ 3.300 ft 330° 330° 14 - 24 kt METAR EHKD 191925Z AUTO 33014G24KT 280V030 9999 FEW017CB BKN033 BKN040 08/03 Q1013 BLU
21:03
M
8 °C 10 km+ 2.100 ft 340° 340° 15 - 31 kt METAR EHKD 191903Z AUTO 34015G31KT 290V030 9999 -RA SCT018 BKN021 OVC027 08/04 Q1013 WHT
20:59
M
8 °C 10 km+ 2.700 ft 340° 340° 15 - 27 kt METAR EHKD 191859Z AUTO 34015G27KT 290V030 9999 -RA FEW018 SCT022 BKN027 08/04 Q1013 WHT
20:55
V
7 °C 10 km+ 4.900 ft 340° 340° 15 - 27 kt METAR EHKD 191855Z AUTO 34015G27KT 290V050 9999 FEW018 SCT027 BKN049 07/04 Q1013 BLU
20:41
V
7 °C 10 km+ 3.500 ft 340° 340° 18 - 30 kt METAR EHKD 191841Z AUTO 34018G30KT 290V020 9999 FEW017 SCT026 BKN035 07/03 Q1013 BLU
20:33
M
8 °C 10 km+ 2.300 ft 340° 340° 16 - 30 kt METAR EHKD 191833Z AUTO 34016G30KT 290V020 9999 SCT017 BKN023 BKN031 08/04 Q1012 WHT
20:25
M
8 °C 10 km+ 2.000 ft 330° 330° 17 - 28 kt METAR EHKD 191825Z AUTO 33017G28KT 280V020 9999 SCT016 BKN020 OVC032 08/04 Q1012 WHT TEMPO 4000 SHRA SCT016 SCT020CB
20:14
M
7 °C 10 km+ 2.700 ft 330° 330° 18 - 28 kt METAR EHKD 191814Z AUTO 33018G28KT 290V020 9999 SCT016 SCT019 BKN027 07/04 Q1012 WHT TEMPO 4000 SHRA SCT016 SCT020CB
19:55
M
7 °C 10 km+ 1.700 ft 330° 330° 17 - 29 kt METAR EHKD 191755Z AUTO 33017G29KT 280V020 9999 FEW014 FEW015CB BKN017 BKN020 07/04 Q1012 WHT TEMPO 4000 SHRA SCT016 SCT020CB
19:25
M
8 °C 10 km+ 2.400 ft 330° 330° 18 - 30 kt METAR EHKD 191725Z AUTO 33018G30KT 290V020 9999 FEW017 SCT021 BKN024 08/04 Q1011 REDZ WHT TEMPO 4000 SHRA SCT016 SCT020CB
19:11
M
7 °C 10 km+ 1.600 ft 330° 330° 17 - 27 kt METAR EHKD 191711Z AUTO 33017G27KT 280V030 9999 -RA FEW007 BKN016 BKN020 07/05 Q1011 WHT TEMPO 4000 SHRA SCT016 SCT020CB
19:07
M
7 °C 10 km+ 2.700 ft 330° 330° 16 kt METAR EHKD 191707Z AUTO 33016KT 280V030 9999 FEW014 SCT017 BKN027 07/05 Q1011 WHT TEMPO 4000 SHRA SCT016 SCT020CB
19:01
M
7 °C 8 km 2.600 ft 330° 330° 17 - 29 kt METAR EHKD 191701Z AUTO 33017G29KT 280V030 8000 +DZRA FEW015 SCT020 BKN026 07/04 Q1011 WHT TEMPO 4000 SHRA SCT016 SCT020CB
18:55
M
8 °C 10 km+ 2.200 ft 340° 340° 16 - 28 kt METAR EHKD 191655Z AUTO 34016G28KT 280V030 9999 FEW014 SCT018 BKN022 08/05 Q1011 WHT TEMPO 4000 SHRA SCT016 SCT020CB
18:43
M
7 °C 9 km 2.700 ft 330° 330° 16 - 30 kt METAR EHKD 191643Z AUTO 33016G30KT 270V030 9000 -RA FEW018 SCT023 BKN027 07/05 Q1011 WHT TEMPO 4000 SHRA SCT016 SCT020CB
18:39
V
8 °C 10 km+ 3.100 ft 330° 330° 18 - 30 kt METAR EHKD 191639Z AUTO 33018G30KT 290V030 9999 -RA FEW018 SCT027 BKN031 08/05 Q1011 BLU TEMPO 4000 SHRA SCT016 SCT020CB
18:30
M
8 °C 10 km+ 2.600 ft 330° 330° 18 - 31 kt METAR EHKD 191630Z AUTO 33018G31KT 280V040 9999 SCT017 SCT021 BKN026 08/05 Q1011 WHT TEMPO 4000 SHRA SCT016 SCT020CB
18:25
M
8 °C 9 km 2.800 ft 330° 330° 18 - 31 kt METAR EHKD 191625Z AUTO 33018G31KT 280V020 9000 -UP FEW016 SCT023 BKN028 08/05 Q1011 REDZUP WHT TEMPO 4000 SHRA SCT016 SCT020CB
18:04
I
8 °C 4,7 km 1.600 ft 320° 320° 18 - 31 kt METAR EHKD 191604Z AUTO 32018G31KT 280V010 4700 -UP BKN016 BKN020 OVC027 08/04 Q1010 GRN TEMPO 4000 SHRA SCT016 SCT020CB
17:55
M
8 °C 10 km+ 2.300 ft 320° 320° 19 - 31 kt METAR EHKD 191555Z AUTO 32019G31KT 270V030 9999 SCT019 BKN023 BKN026 08/04 Q1010 WHT TEMPO 4000 SHRA SCT016 SCT020CB
17:35
V
9 °C 10 km+ 3.500 ft 330° 330° 20 - 32 kt METAR EHKD 191535Z AUTO 33020G32KT 280V020 9999 FEW021 SCT025 BKN035 09/04 Q1010 BLU TEMPO 4000 SHRA SCT016 SCT020CB
17:27
M
9 °C 10 km+ 2.800 ft 330° 330° 19 - 30 kt METAR EHKD 191527Z AUTO 33019G30KT 280V020 9999 FEW020 SCT023 BKN028 09/05 Q1010 WHT TEMPO 4000 SHRA SCT016 SCT020CB
17:25
M
9 °C 10 km+ 2.500 ft 320° 320° 19 - 29 kt METAR EHKD 191525Z AUTO 32019G29KT 280V020 9999 FEW018 BKN025 BKN029 09/05 Q1010 BLU TEMPO 4000 SHRA SCT016 SCT020CB
17:08
M
9 °C 10 km+ 2.200 ft 320° 320° 22 - 35 kt METAR EHKD 191508Z AUTO 32022G35KT 290V010 9999 FEW017 BKN022 BKN028 09/05 Q1010 WHT TEMPO 4000 SHRA SCT016 SCT020CB
17:04
M
9 °C 10 km+ 3.000 ft 320° 320° 20 - 31 kt METAR EHKD 191504Z AUTO 32020G31KT 290V010 9999 FEW017 SCT021 BKN030 09/05 Q1010 WHT TEMPO 4000 SHRA SCT016 SCT020CB
16:57
M
9 °C 10 km+ 3.000 ft 320° 320° 19 - 29 kt METAR EHKD 191457Z AUTO 32019G29KT 280V020 9999 FEW017 SCT021 BKN030 09/06 Q1010 WHT TEMPO 4000 SHRA SCT016 SCT020CB
16:55
V
9 °C 10 km+ 4.200 ft 320° 320° 19 - 29 kt METAR EHKD 191455Z AUTO 32019G29KT 280V020 9999 FEW017 SCT030 BKN042 09/05 Q1010 BLU TEMPO 4000 SHRA SCT016 SCT020CB
16:43
M
8 °C 10 km+ 2.400 ft 330° 330° 19 - 32 kt METAR EHKD 191443Z AUTO 33019G32KT 270V030 9999 -RA FEW016 SCT019 BKN024 08/05 Q1009 WHT TEMPO 4000 SHRA SCT016 SCT020CB
16:39
I
8 °C 4,3 km 2.100 ft 320° 320° 19 - 33 kt METAR EHKD 191439Z AUTO 32019G33KT 270V030 4300 RA SCT016 BKN021 OVC026 08/05 Q1009 GRN TEMPO 4000 SHRA SCT016 SCT020CB
16:35
M
9 °C 10 km+ 2.100 ft 320° 320° 20 - 33 kt METAR EHKD 191435Z AUTO 32020G33KT 280V030 9999 SCT017 BKN021 BKN027 09/05 Q1009 WHT TEMPO 4000 SHRA SCT016 SCT020CB
16:31
V
8 °C 10 km+ 3.800 ft 320° 320° 19 - 30 kt METAR EHKD 191431Z AUTO 32019G30KT 280V020 9999 FEW017 SCT023 BKN038 08/05 Q1009 WHT TEMPO 4000 SHRA SCT016 SCT020CB
16:27
V
8 °C 10 km+ 3.700 ft 320° 320° 18 - 30 kt METAR EHKD 191427Z AUTO 32018G30KT 290V020 9999 -RA FEW015 SCT030 BKN037 08/05 Q1009 BLU TEMPO 4000 SHRA SCT016 SCT020CB
16:25
V
8 °C 10 km+ 3.200 ft 320° 320° 17 - 29 kt METAR EHKD 191425Z AUTO 32017G29KT 280V020 9999 -RA FEW009 SCT016 BKN032 08/05 Q1009 WHT TEMPO 4000 SHRA SCT016 SCT020CB
16:12
M
8 °C 10 km+ 2.500 ft 330° 330° 18 - 30 kt METAR EHKD 191412Z AUTO 33018G30KT 290V030 9999 -RA FEW017 SCT020 BKN025 08/05 Q1009 WHT TEMPO 4000 SHRA SCT016 SCT020CB
16:08
I
8 °C 3,9 km 2.100 ft 320° 320° 19 - 30 kt METAR EHKD 191408Z AUTO 32019G30KT 280V010 3900 -RA FEW015CB SCT017 BKN021 OVC025 08/05 Q1009 GRN TEMPO 4000 SHRA SCT016 SCT020CB
15:57
M
9 °C 10 km+ 2.300 ft 320° 320° 17 - 27 kt METAR EHKD 191357Z AUTO 32017G27KT 270V360 9999 FEW015CB SCT018 BKN023 BKN026 09/05 Q1009 WHT TEMPO 4000 SHRA SCT016 SCT020CB
15:42
M
8 °C 10 km+ 3.000 ft 320° 320° 20 - 31 kt METAR EHKD 191342Z AUTO 32020G31KT 280V360 9999 FEW016 SCT026 BKN030 08/05 Q1009 BLU TEMPO 4000 SHRA SCT016 SCT020CB
15:34
M
9 °C 5 km - 320° 320° 21 - 31 kt METAR EHKD 191334Z AUTO 32021G31KT 270V020 5000 -RA SCT020 SCT031 09/04 Q1009 WHT TEMPO 4000 SHRA SCT016 SCT020CB
15:25
V
10 °C 10 km+ - 320° 320° 18 - 30 kt METAR EHKD 191325Z AUTO 32018G30KT 270V010 9999 FEW021 10/05 Q1009 BLU TEMPO 4000 SHRA SCT016 SCT020CB
14:57
M
10 °C 10 km+ 2.300 ft 320° 320° 17 - 27 kt METAR EHKD 191257Z AUTO 32017G27KT 280V010 9999 SCT019 BKN023 BKN029 10/05 Q1009 WHT TEMPO 4000 SHRA SCT016 SCT020CB
14:55
M
10 °C 10 km+ 2.700 ft 320° 320° 17 - 27 kt METAR EHKD 191255Z AUTO 32017G27KT 280V010 9999 FEW019 SCT023 BKN027 10/05 Q1009 WHT TEMPO 4000 SHRA SCT016 SCT020CB
14:36
V
10 °C 10 km+ 3.600 ft 320° 320° 19 kt METAR EHKD 191236Z AUTO 32019KT 270V360 9999 FEW025 SCT030 BKN036 10/05 Q1008 BLU TEMPO 4000 SHRA SCT016 SCT020CB
14:25
V
10 °C 10 km+ - 320° 320° 17 - 28 kt METAR EHKD 191225Z AUTO 32017G28KT 280V010 9999 FEW025 10/04 Q1008 BLU TEMPO 4000 SHRA SCT016 SCT020CB
14:09
M
9 °C 10 km+ 2.400 ft 320° 320° 19 - 35 kt METAR EHKD 191209Z AUTO 32019G35KT 270V020 9999 -RA SCT019 BKN024 BKN035 09/05 Q1008 WHT TEMPO 4000 SHRA SCT016 SCT020CB
14:05
M
10 °C 5 km - 320° 320° 19 - 30 kt METAR EHKD 191205Z AUTO 32019G30KT 270V010 5000 -RA SCT020 SCT042 10/05 Q1008 WHT TEMPO 4000 SHRA SCT016 SCT020CB
13:55
V
10 °C 10 km+ 7.200 ft 320° 320° 19 - 29 kt METAR EHKD 191155Z AUTO 32019G29KT 270V040 9999 SCT021 BKN072 BKN078 10/05 Q1008 WHT TEMPO 4000 SHRA SCT016 SCT020CB
13:42
V
9 °C 10 km+ 3.400 ft 320° 320° 18 - 30 kt METAR EHKD 191142Z AUTO 32018G30KT 280V020 9999 FEW024 BKN034 BKN044 09/04 Q1008 BLU TEMPO 4000 SHRA SCT016 SCT020CB
13:28
V
8 °C 10 km+ 3.600 ft 330° 330° 18 - 29 kt METAR EHKD 191128Z AUTO 33018G29KT 290V030 9999 -RA FEW015CB SCT031 BKN036 08/05 Q1008 BLU TEMPO 4000 SHRA SCT016 SCT020CB
13:25
V
9 °C 10 km+ 3.100 ft 330° 330° 19 - 29 kt METAR EHKD 191125Z AUTO 33019G29KT 290V030 9999 FEW017 SCT024 BKN031 09/05 Q1008 WHT TEMPO 4000 SHRA SCT016 SCT020CB
13:12
M
8 °C 10 km+ 2.800 ft 330° 330° 15 - 27 kt METAR EHKD 191112Z AUTO 33015G27KT 290V050 9999 RA FEW007 SCT021 BKN028 08/05 Q1008 WHT TEMPO 4000 SHRA SCT016 SCT020CB
13:04
M
9 °C 6 km 1.800 ft 320° 320° 19 - 29 kt METAR EHKD 191104Z AUTO 32019G29KT 280V020 6000 -RA SCT015 BKN018 BKN025 09/05 Q1008 WHT TEMPO 4000 SHRA SCT016 SCT020CB
12:55
M
10 °C 10 km+ 1.800 ft 320° 320° 19 kt METAR EHKD 191055Z AUTO 32019KT 280V010 9999 SCT015 BKN018 BKN024 10/07 Q1007 WHT TEMPO 4000 SHRA SCT016 SCT020CB
12:40
M
10 °C 10 km+ 2.100 ft 330° 330° 17 - 27 kt METAR EHKD 191040Z AUTO 33017G27KT 280V020 9999 SCT016 BKN021 BKN025 10/06 Q1007 WHT TEMPO 4000 SHRA SCT016 SCT020CB
12:27
M
9 °C 10 km+ 2.000 ft 320° 320° 14 kt METAR EHKD 191027Z AUTO 32014KT 280V020 9999 SCT016 BKN020 BKN023 09/06 Q1007 WHT TEMPO 4000 SHRA SCT016 SCT020CB
12:25
M
9 °C 10 km+ 2.800 ft 320° 320° 14 kt METAR EHKD 191025Z AUTO 32014KT 280V010 9999 FEW016 SCT019 BKN028 09/06 Q1007 WHT TEMPO 4000 SHRA SCT016 SCT020CB
12:09
M
9 °C 10 km+ 1.500 ft 330° 330° 17 - 28 kt METAR EHKD 191009Z AUTO 33017G28KT 280V010 9999 FEW013 BKN015CB BKN018 09/06 Q1007 WHT TEMPO 4000 SHRA SCT016 SCT020CB
12:01
M
9 °C 10 km+ 3.000 ft 320° 320° 16 - 26 kt METAR EHKD 191001Z AUTO 32016G26KT 270V360 9999 FEW014 SCT027 BKN030 09/06 Q1007 BLU TEMPO 4000 SHRA SCT016 SCT020CB
11:55
M
9 °C 10 km+ 2.000 ft 300° 300° 17 - 30 kt METAR EHKD 190955Z AUTO 30017G30KT 270V340 9999 -RA FEW014 FEW015CB SCT016 BKN020 09/06 Q1007 WHT TEMPO 4000 SHRA SCT016 SCT020CB
11:38
V
9 °C 10 km+ 3.100 ft 300° 300° 12 kt METAR EHKD 190938Z AUTO 30012KT 270V340 9999 -RA FEW015CB SCT027 BKN031 09/07 Q1007 BLU TEMPO 4000 SHRA SCT016 SCT020CB
11:25
V
8 °C 10 km+ 3.500 ft 310° 310° 18 - 28 kt METAR EHKD 190925Z AUTO 31018G28KT 250V340 9999 -RA FEW010 FEW015CB SCT028 BKN035 08/05 Q1007 BLU TEMPO 4000 SHRA SCT016 SCT020CB
11:10
M
10 °C 10 km+ 1.500 ft 300° 300° 16 - 27 kt METAR EHKD 190910Z AUTO 30016G27KT 260V340 9999 -RA BKN015CB BKN021 BKN028 10/07 Q1007 WHT TEMPO 4000 SHRA SCT016 SCT020CB
10:57
M
10 °C 10 km+ 2.100 ft 300° 300° 16 kt METAR EHKD 190857Z AUTO 30016KT 270V340 9999 SCT017 BKN021 BKN057 10/07 Q1007 WHT TEMPO 4000 SHRA SCT016 SCT020CB
10:38
V
10 °C 10 km+ 5.500 ft 300° 300° 13 kt METAR EHKD 190838Z AUTO 30013KT 250V340 9999 FEW014 SCT039 BKN055 10/07 Q1007 BLU TEMPO 4000 SHRA SCT016 SCT020CB
10:27
M
9 °C 10 km+ 1.400 ft 310° 310° 12 kt METAR EHKD 190827Z AUTO 31012KT 250V350 9999 RA FEW000 SCT011 BKN014 09/07 Q1007 GRN TEMPO 4000 SHRA SCT016 SCT020CB
10:25
I
9 °C 3,8 km 1.600 ft 300° 300° 13 kt METAR EHKD 190825Z AUTO 30013KT 260V350 3800 +RADZ SCT013 BKN016 BKN024 09/07 Q1007 GRN TEMPO 4000 SHRA SCT016 SCT020CB
10:18
M
10 °C 10 km+ 2.700 ft 300° 300° 13 kt METAR EHKD 190818Z AUTO 30013KT 260V340 9999 -RADZ SCT015 SCT021 BKN027 10/07 Q1007 WHT TEMPO 4000 SHRA SCT016 SCT020CB
10:10
M
10 °C 10 km+ 2.900 ft 300° 300° 13 kt METAR EHKD 190810Z AUTO 30013KT 260V340 9999 SCT015 SCT021 BKN029 10/07 Q1007 WHT TEMPO 4000 SHRA SCT016 SCT020CB
10:02
M
10 °C 10 km+ 2.900 ft 300° 300° 14 kt METAR EHKD 190802Z AUTO 30014KT 260V350 9999 FEW015 SCT026 BKN029 10/07 Q1007 BLU TEMPO 4000 SHRA SCT016 SCT020CB
09:55
M
10 °C 10 km+ 1.500 ft 300° 300° 11 kt METAR EHKD 190755Z AUTO 30011KT 260V340 9999 FEW013 BKN015 BKN021 10/07 Q1007 WHT TEMPO 4000 SHRA SCT016 SCT020CB
09:44
M
10 °C 10 km+ 1.900 ft 300° 300° 11 kt METAR EHKD 190744Z AUTO 30011KT 270V350 9999 FEW012 SCT015 BKN019 10/07 Q1007 WHT TEMPO 4000 SHRA SCT016 SCT020CB
09:40
V
10 °C 10 km+ 12.000 ft 300° 300° 10 kt METAR EHKD 190740Z AUTO 30010KT 240V350 9999 FEW014 SCT016 OVC120 10/07 Q1007 WHT TEMPO 4000 SHRA SCT016 SCT020CB
09:25
V
9 °C 10 km+ 4.900 ft 310° 310° 9 kt METAR EHKD 190725Z AUTO 31009KT 270V340 9999 FEW015CB SCT044 BKN049 BKN056 09/07 Q1007 BLU TEMPO 4000 SHRA SCT016 SCT020CB
09:10
V
9 °C 10 km+ 4.500 ft 320° 320° 12 kt METAR EHKD 190710Z AUTO 32012KT 270V350 9999 FEW011 FEW015CB BKN045 OVC052 09/06 Q1007 BLU TEMPO 4000 SHRA SCT016 SCT020CB
09:06
V
9 °C 10 km+ 4.400 ft 310° 310° 11 kt METAR EHKD 190706Z AUTO 31011KT 270V360 9999 FEW011 FEW015CB SCT016 BKN044 09/06 Q1007 WHT TEMPO 4000 SHRA SCT016 SCT020CB
09:01
V
9 °C 10 km+ 3.400 ft 310° 310° 11 kt METAR EHKD 190701Z AUTO 31011KT 270V360 9999 -RA FEW011 SCT014 FEW015CB BKN034 09/07 Q1007 GRN TEMPO 4000 SHRA SCT016 SCT020CB
08:55
V
9 °C 10 km+ 3.900 ft 310° 310° 13 kt METAR EHKD 190655Z AUTO 31013KT 270V360 9999 -RA FEW015CB OVC039 09/07 Q1007 RERA REDZ BLU TEMPO 4000 SHRA SCT016 SCT020CB
08:44
V
9 °C 10 km+ 3.800 ft 320° 320° 13 kt METAR EHKD 190644Z AUTO 32013KT 280V350 9999 DZRA FEW015CB SCT033 OVC038 09/06 Q1007 BLU TEMPO 4000 SHRA SCT016 SCT020CB
08:40
V
9 °C 10 km+ 3.500 ft 320° 320° 13 kt METAR EHKD 190640Z AUTO 32013KT 270V360 9999 -RA FEW015CB BKN035 OVC040 09/06 Q1007 BLU TEMPO 4000 SHRA SCT016 SCT020CB
08:27
M
9 °C 10 km+ 1.700 ft 310° 310° 10 kt METAR EHKD 190627Z AUTO 31010KT 270V340 9999 -RADZ FEW012 SCT014 FEW015CB BKN017 09/07 Q1007 GRN TEMPO 4000 SHRA SCT016 SCT020CB
08:25
M
9 °C 10 km+ 2.500 ft 310° 310° 11 kt METAR EHKD 190625Z AUTO 31011KT 270V340 9999 -RA FEW013 FEW015CB SCT016 BKN025 09/07 Q1007 WHT TEMPO 4000 SHRA SCT016 SCT020CB
08:19
M
9 °C 10 km+ 2.300 ft 310° 310° 13 kt METAR EHKD 190619Z AUTO 31013KT 260V340 9999 FEW011 SCT014 FEW015CB BKN023 09/07 Q1007 GRN TEMPO 4000 SHRA SCT016 SCT020CB
08:11
V
9 °C 10 km+ 3.200 ft 300° 300° 11 kt METAR EHKD 190611Z AUTO 30011KT 260V330 9999 -DZ FEW014 BKN032 BKN040 09/07 Q1007 BLU TEMPO 4000 SHRA SCT016 SCT020CB
08:02
V
9 °C 10 km+ 3.800 ft 300° 300° 11 kt METAR EHKD 190602Z AUTO 30011KT 250V340 9999 DZRA FEW016 SCT031 BKN038 09/07 Q1007 BLU TEMPO 4000 SHRA SCT016 SCT020CB
07:55
V
9 °C 10 km+ 4.800 ft 300° 300° 12 kt METAR EHKD 190555Z AUTO 30012KT 270V340 9999 -DZ FEW033 SCT043 OVC048 09/07 Q1007 REDZ BLU TEMPO 4000 SHRA SCT016 SCT020CB
07:33
V
9 °C 10 km+ 5.200 ft 300° 300° 12 kt METAR EHKD 190533Z AUTO 30012KT 270V330 9999 -DZ FEW016 BKN052 OVC057 09/07 Q1007 BLU TEMPO 4000 SHRA SCT016 SCT020CB
07:32
V
10 °C 10 km+ 5.500 ft 300° 300° 11 kt METAR EHKD 190532Z AUTO 30011KT 270V330 9999 -DZRA FEW040 BKN055 OVC061 10/07 Q1007 BLU TEMPO 4000 SHRAGS SCT016 SCT020CB
07:25
V
10 °C 10 km+ 5.300 ft 300° 300° 11 kt METAR EHKD 190525Z AUTO 30011KT 260V350 9999 FEW013 BKN053 OVC066 10/07 Q1007 BLU TEMPO 4000 SHRAGS SCT016 SCT020CB
06:55
V
9 °C 10 km+ 5.300 ft 300° 300° 13 kt METAR EHKD 190455Z AUTO 30013KT 9999 FEW013 BKN053 OVC059 09/07 Q1007 BLU TEMPO 4000 SHRAGS SCT016 SCT020CB
06:42
M
9 °C 10 km+ 1.300 ft 300° 300° 12 kt METAR EHKD 190442Z AUTO 30012KT 260V350 9999 FEW009 SCT011 BKN013 09/08 Q1007 GRN NOSIG
06:38
M
9 °C 10 km+ 1.600 ft 300° 300° 12 kt METAR EHKD 190438Z AUTO 30012KT 260V350 9999 FEW010 SCT013 BKN016 09/08 Q1007 GRN NOSIG
06:27
M
9 °C 10 km+ 1.400 ft 300° 300° 11 kt METAR EHKD 190427Z AUTO 30011KT 260V340 9999 FEW009 SCT011 BKN014 09/08 Q1007 GRN
06:25
M
9 °C 10 km+ 1.600 ft 300° 300° 12 kt METAR EHKD 190425Z AUTO 30012KT 270V330 9999 FEW010 SCT013 BKN016 09/08 Q1007 GRN
06:12
M
10 °C 10 km+ 1.500 ft 300° 300° 12 kt METAR EHKD 190412Z AUTO 30012KT 270V340 9999 FEW010 SCT012 BKN015 10/08 Q1007 GRN
06:08
V
10 °C 10 km+ 11.000 ft 300° 300° 12 kt METAR EHKD 190408Z AUTO 30012KT 260V340 9999 FEW010 SCT085 OVC110 10/08 Q1007 BLU
06:04
V
9 °C 10 km+ 8.800 ft 300° 300° 12 kt METAR EHKD 190404Z AUTO 30012KT 260V330 9999 FEW009 SCT015 BKN088 09/08 Q1007 WHT
05:55
M
10 °C 10 km+ 1.300 ft 310° 310° 13 kt METAR EHKD 190355Z AUTO 31013KT 260V350 9999 FEW008 SCT010 BKN013 10/08 Q1007 REDZ GRN
05:32
M
10 °C 10 km+ 1.700 ft 300° 300° 14 kt METAR EHKD 190332Z AUTO 30014KT 260V350 9999 FEW009 SCT014 BKN017 10/08 Q1007 GRN
05:25
M
10 °C 10 km+ 1.800 ft 300° 300° 14 kt METAR EHKD 190325Z AUTO 30014KT 250V340 9999 FEW009 BKN018 OVC022 10/08 Q1007 WHT
05:15
M
10 °C 10 km+ 2.100 ft 300° 300° 14 kt METAR EHKD 190315Z AUTO 30014KT 250V330 9999 FEW010 SCT013 FEW015CB BKN021 10/08 Q1007 GRN
04:58
M
10 °C 10 km+ 1.900 ft 290° 290° 14 kt METAR EHKD 190258Z AUTO 29014KT 250V330 9999 FEW008 SCT016 BKN019 10/08 Q1008 WHT
04:25
M
9 °C 10 km+ 1.100 ft 280° 280° 14 kt METAR EHKD 190225Z AUTO 28014KT 250V320 9999 FEW004 SCT009 BKN011 09/09 Q1008 GRN
04:07
I
9 °C 4,1 km 600 ft 280° 280° 18 kt METAR EHKD 190207Z AUTO 28018KT 240V300 4100 BR SCT004 BKN006 BKN007 09/09 Q1008 YLO
03:55
L
9 °C 4,1 km 400 ft 270° 270° 19 kt METAR EHKD 190155Z AUTO 27019KT 230V300 4100 BR FEW003 BKN004 OVC006 09/08 Q1008 REDZ YLO
03:40
I
9 °C 6 km 500 ft 270° 270° 20 kt METAR EHKD 190140Z AUTO 27020KT 6000 DZRA SCT004 BKN005 BKN007 09/08 Q1008 YLO
03:28
I
9 °C 3,4 km 600 ft 260° 260° 20 kt METAR EHKD 190128Z AUTO 26020KT 240V300 3400 BR SCT005 BKN006 BKN007 09/08 Q1009 YLO
03:25
I
9 °C 3,9 km 500 ft 260° 260° 20 kt METAR EHKD 190125Z AUTO 26020KT 230V290 3900 BR SCT004 BKN005 BKN007 09/08 Q1009 YLO
02:55
I
8 °C 3,1 km 500 ft 250° 250° 19 - 29 kt METAR EHKD 190055Z AUTO 25019G29KT 230V290 3100 DZ SCT004 BKN005 OVC006 08/08 Q1009 YLO
02:25
I
8 °C 4,4 km 600 ft 250° 250° 20 kt METAR EHKD 190025Z AUTO 25020KT 220V280 4400 -DZ FEW005 BKN006 BKN007 08/07 Q1010 REDZ YLO
02:08
I
8 °C 4,6 km 1.000 ft 250° 250° 21 kt METAR EHKD 190008Z AUTO 25021KT 220V280 4600 DZRA FEW007 SCT008 BKN010 08/07 Q1010 GRN
01:55
M
8 °C 7 km 1.200 ft 250° 250° 22 kt METAR EHKD 182355Z AUTO 25022KT 7000 BR FEW007 SCT010 BKN012 08/06 Q1011 GRN
01:25
M
8 °C 10 km+ 2.400 ft 250° 250° 22 - 32 kt METAR EHKD 182325Z AUTO 25022G32KT 9999 DZ FEW014 SCT018 BKN024 08/06 Q1012 WHT
01:10
M
8 °C 10 km+ 2.500 ft 260° 260° 22 kt METAR EHKD 182310Z AUTO 26022KT 230V290 9999 -DZ FEW015 BKN025 BKN032 08/05 Q1012 BLU
01:06
M
8 °C 10 km+ 2.500 ft 250° 250° 23 kt METAR EHKD 182306Z AUTO 25023KT 230V290 9999 DZ FEW014 OVC025 08/05 Q1012 BLU
00:57
M
8 °C 9 km 1.900 ft 260° 260° 21 - 31 kt METAR EHKD 182257Z AUTO 26021G31KT 9000 DZ FEW012 SCT015 BKN019 08/05 Q1012 WHT
00:55
M
8 °C 9 km 1.400 ft 250° 250° 21 kt METAR EHKD 182255Z AUTO 25021KT 9000 -RADZ FEW012 BKN014 BKN018 08/06 Q1012 GRN
00:41
M
8 °C 10 km+ 2.000 ft 250° 250° 22 kt METAR EHKD 182241Z AUTO 25022KT 220V280 9999 DZRA SCT017 BKN020 BKN024 08/05 Q1012 WHT
00:34
M
8 °C 10 km+ 2.400 ft 240° 240° 21 kt METAR EHKD 182234Z AUTO 24021KT 9999 -DZ FEW017 SCT021 BKN024 08/05 Q1012 WHT
00:30
M
8 °C 10 km+ 2.500 ft 250° 250° 21 kt METAR EHKD 182230Z AUTO 25021KT 9999 -DZ FEW015CB BKN025 BKN029 08/05 Q1013 BLU
00:25
M
8 °C 10 km+ 2.500 ft 250° 250° 21 kt METAR EHKD 182225Z AUTO 25021KT 230V300 9999 -DZ FEW015CB BKN025 OVC038 08/05 Q1013 REDZ BLU
00:09
M
8 °C 10 km+ 1.600 ft 250° 250° 17 kt METAR EHKD 182209Z AUTO 25017KT 9999 -RA FEW014 FEW015CB BKN016 BKN021 08/06 Q1013 WHT
00:04
M
8 °C 10 km+ 1.600 ft 240° 240° 16 kt METAR EHKD 182204Z AUTO 24016KT 9999 -RA SCT014 FEW015CB BKN016 OVC021 08/06 Q1013 GRN

18 april 2024

Tijd Code Weer Temp. Zicht Plafond Wind METAR/SPECI
23:55
M
8 °C 10 km+ 1.800 ft 250° 250° 17 kt METAR EHKD 182155Z AUTO 25017KT 210V280 9999 -RA FEW012 SCT015CB BKN018 08/06 Q1014 RERA REDZ WHT
23:44
M
8 °C 10 km+ 2.100 ft 250° 250° 17 kt METAR EHKD 182144Z AUTO 25017KT 230V290 9999 DZRA FEW011 FEW015CB SCT018 BKN021 08/06 Q1014 WHT
23:36
M
8 °C 10 km+ 2.100 ft 260° 260° 18 kt METAR EHKD 182136Z AUTO 26018KT 9999 -RA FEW011 SCT015 BKN021 08/06 Q1014 WHT
23:25
M
8 °C 10 km+ 2.400 ft 260° 260° 17 kt METAR EHKD 182125Z AUTO 26017KT 230V290 9999 DZ FEW015 SCT021 BKN024 08/06 Q1014 WHT
23:14
M
8 °C 9 km 2.500 ft 250° 250° 18 kt METAR EHKD 182114Z AUTO 25018KT 230V290 9000 DZ FEW016 SCT021 OVC025 08/05 Q1015 WHT
23:04
M
8 °C 9 km 2.700 ft 260° 260° 19 kt METAR EHKD 182104Z AUTO 26019KT 220V290 9000 DZ FEW020 SCT024 BKN027 08/05 Q1015 WHT
22:58
M
8 °C 7 km 3.500 ft 260° 260° 18 kt METAR EHKD 182058Z AUTO 26018KT 7000 DZ FEW020 SCT030 BKN035 08/05 Q1015 WHT
22:55
V
8 °C 10 km+ 3.700 ft 260° 260° 17 kt METAR EHKD 182055Z AUTO 26017KT 230V290 9999 -DZ FEW020 SCT032 BKN037 08/05 Q1015 BLU
22:43
M
8 °C 9 km 2.700 ft 260° 260° 17 - 29 kt METAR EHKD 182043Z AUTO 26017G29KT 220V290 9000 -SHRA SCT019 SCT023 BKN027 08/05 Q1015 WHT
22:25
M
8 °C 9 km 2.500 ft 240° 240° 18 kt METAR EHKD 182025Z AUTO 24018KT 190V270 9000 +DZ FEW016 SCT020 BKN025 08/05 Q1015 WHT NOSIG
22:13
V
9 °C 10 km+ 3.100 ft 230° 230° 16 kt METAR EHKD 182013Z AUTO 23016KT 200V260 9999 DZ FEW021 SCT026 BKN031 09/04 Q1015 BLU NOSIG
21:57
M
9 °C 10 km+ 2.600 ft 240° 240° 15 kt METAR EHKD 181957Z AUTO 24015KT 200V260 9999 SCT022 BKN026 BKN029 09/05 Q1016 WHT NOSIG
21:38
V
9 °C 10 km+ 7.400 ft 230° 230° 16 kt METAR EHKD 181938Z AUTO 23016KT 200V260 9999 SCT024 SCT034 BKN074 09/04 Q1016 WHT NOSIG
21:25
V
9 °C 10 km+ 5.300 ft 230° 230° 15 kt METAR EHKD 181925Z AUTO 23015KT 9999 FEW025 SCT028 BKN053 09/04 Q1016 BLU NOSIG
20:57
V
8 °C 10 km+ 8.300 ft 240° 240° 14 kt METAR EHKD 181857Z AUTO 24014KT 9999 SCT024 SCT032 BKN083 08/04 Q1017 WHT NOSIG
20:43
M
8 °C 10 km+ 3.000 ft 240° 240° 14 kt METAR EHKD 181843Z AUTO 24014KT 9999 SCT024 BKN030 BKN038 08/03 Q1017 WHT NOSIG
20:25
V
8 °C 10 km+ 9.200 ft 250° 250° 14 kt METAR EHKD 181825Z AUTO 25014KT 9999 SCT025 SCT034 BKN092 08/03 Q1017 BLU NOSIG
20:13
M
8 °C 10 km+ 3.000 ft 250° 250° 14 kt METAR EHKD 181813Z AUTO 25014KT 9999 FEW024 SCT027 BKN030 08/03 Q1017 BLU NOSIG
19:55
V
8 °C 10 km+ 10.000 ft 260° 260° 13 kt METAR EHKD 181755Z AUTO 26013KT 230V290 9999 FEW026 SCT030 OVC100 08/03 Q1018 BLU NOSIG
19:35
V
8 °C 10 km+ 3.800 ft 260° 260° 13 kt METAR EHKD 181735Z AUTO 26013KT 220V290 9999 SCT023 SCT028 BKN038 08/04 Q1018 WHT NOSIG
19:25
V
9 °C 10 km+ 10.000 ft 250° 250° 12 kt METAR EHKD 181725Z AUTO 25012KT 230V290 9999 FEW039 OVC100 09/04 Q1018 BLU NOSIG
18:55
V
9 °C 10 km+ 3.400 ft 260° 260° 13 kt METAR EHKD 181655Z AUTO 26013KT 9999 FEW030 BKN034 BKN042 09/02 Q1018 BLU NOSIG
18:25
V
9 °C 10 km+ 4.100 ft 270° 270° 13 kt METAR EHKD 181625Z AUTO 27013KT 230V300 9999 SCT032 OVC041 09/03 Q1019 BLU NOSIG
17:55
V
9 °C 10 km+ 13.000 ft 270° 270° 12 kt METAR EHKD 181555Z AUTO 27012KT 230V300 9999 FEW043 OVC130 09/02 Q1019 BLU NOSIG
17:25
V
9 °C 10 km+ 3.900 ft 280° 280° 11 kt METAR EHKD 181525Z AUTO 28011KT 220V320 9999 OVC039 09/03 Q1019 BLU NOSIG
16:55
V
9 °C 10 km+ 4.000 ft 270° 270° 12 kt METAR EHKD 181455Z AUTO 27012KT 230V310 9999 FEW035 OVC040 09/03 Q1019 BLU NOSIG
16:25
V
9 °C 10 km+ 3.500 ft 280° 280° 10 kt METAR EHKD 181425Z AUTO 28010KT 250V320 9999 BKN035 OVC039 09/02 Q1019 BLU NOSIG
15:55
V
9 °C 10 km+ 3.700 ft 290° 290° 11 kt METAR EHKD 181355Z AUTO 29011KT 250V330 9999 OVC037 09/02 Q1020 BLU NOSIG
15:25
V
9 °C 10 km+ 3.600 ft 280° 280° 10 kt METAR EHKD 181325Z AUTO 28010KT 250V320 9999 FEW026 SCT031 OVC036 09/03 Q1020 BLU NOSIG
14:55
V
9 °C 10 km+ 3.300 ft 270° 270° 9 kt METAR EHKD 181255Z AUTO 27009KT 230V330 9999 FEW029 OVC033 09/02 Q1020 BLU NOSIG
14:25
V
10 °C 10 km+ 3.800 ft 290° 290° 11 kt METAR EHKD 181225Z AUTO 29011KT 250V340 9999 FEW033 OVC038 10/02 Q1020 BLU NOSIG
13:55
V
10 °C 10 km+ - 310° 310° 12 kt METAR EHKD 181155Z AUTO 31012KT 270V010 9999 SCT033 SCT037 10/02 Q1020 BLU NOSIG
13:25
V
10 °C 10 km+ 4.100 ft 310° 310° 10 kt METAR EHKD 181125Z AUTO 31010KT 270V360 9999 SCT031 OVC041 10/03 Q1020 BLU NOSIG
12:55
M
9 °C 10 km+ 2.800 ft 310° 310° 9 kt METAR EHKD 181055Z AUTO 31009KT 250V360 9999 BKN028 OVC035 09/03 Q1020 BLU NOSIG
12:31
M
9 °C 10 km+ 2.500 ft 290° 290° 9 kt METAR EHKD 181031Z AUTO 29009KT 260V340 9999 OVC025 09/04 Q1020 BLU NOSIG
12:25
M
9 °C 10 km+ 2.300 ft 310° 310° 7 kt METAR EHKD 181025Z AUTO 31007KT 260V020 9999 BKN023 BKN026 OVC034 09/04 Q1020 REDZ WHT NOSIG
12:19
M
9 °C 10 km+ 2.800 ft 330° 330° 5 kt METAR EHKD 181019Z AUTO 33005KT 280V020 9999 DZ SCT023 BKN028 OVC034 09/04 Q1020 WHT NOSIG
11:57
V
8 °C 10 km+ 3.600 ft 310° 310° 11 kt METAR EHKD 180957Z AUTO 31011KT 270V340 9999 -RA FEW021 BKN036 OVC042 08/05 Q1020 BLU NOSIG
11:55
V
9 °C 10 km+ 3.900 ft 300° 300° 11 kt METAR EHKD 180955Z AUTO 30011KT 270V330 9999 -RA FEW016 SCT021 BKN039 09/05 Q1020 WHT NOSIG
11:44
V
8 °C 10 km+ 3.300 ft 290° 290° 11 kt METAR EHKD 180944Z AUTO 29011KT 260V320 9999 FEW016 SCT022 BKN033 08/04 Q1020 WHT NOSIG
11:35
V
8 °C 10 km+ 3.200 ft 300° 300° 10 kt METAR EHKD 180935Z AUTO 30010KT 260V330 9999 DZRA FEW024 SCT029 BKN032 08/04 Q1020 BLU NOSIG
11:27
V
9 °C 10 km+ 3.100 ft 310° 310° 10 kt METAR EHKD 180927Z AUTO 31010KT 260V350 9999 FEW026 BKN031 OVC035 09/05 Q1020 BLU NOSIG
11:25
V
9 °C 10 km+ 3.100 ft 310° 310° 9 kt METAR EHKD 180925Z AUTO 31009KT 250V360 9999 FEW019 SCT023 BKN031 09/05 Q1020 WHT NOSIG
10:55
V
9 °C 10 km+ 3.600 ft 320° 320° 11 kt METAR EHKD 180855Z AUTO 32011KT 280V360 9999 DZ FEW024 BKN036 OVC040 09/04 Q1020 BLU NOSIG
10:27
M
9 °C 10 km+ 2.400 ft 330° 330° 8 kt METAR EHKD 180827Z AUTO 33008KT 270V040 9999 SCT019 BKN024 BKN029 09/04 Q1019 WHT NOSIG
10:25
V
9 °C 10 km+ 4.000 ft 320° 320° 8 kt METAR EHKD 180825Z AUTO 32008KT 270V030 9999 FEW022 OVC040 09/03 Q1019 BLU NOSIG
10:11
V
8 °C 10 km+ 3.200 ft 320° 320° 9 kt METAR EHKD 180811Z AUTO 32009KT 290V010 9999 FEW022 SCT027 BKN032 08/03 Q1019 BLU NOSIG
10:01
M
9 °C 10 km+ 2.100 ft 310° 310° 8 kt METAR EHKD 180801Z AUTO 31008KT 250V360 9999 BKN021 BKN024 BKN030 09/04 Q1019 WHT NOSIG
09:55
V
9 °C 10 km+ 4.000 ft 310° 310° 8 kt METAR EHKD 180755Z AUTO 31008KT 270V360 9999 FEW023 SCT028 BKN040 09/04 Q1019 BLU NOSIG
09:25
V
9 °C 10 km+ - 330° 330° 7 kt METAR EHKD 180725Z AUTO 33007KT 270V020 9999 NCD 09/02 Q1019 BLU NOSIG
08:55
V
9 °C 10 km+ - 340° 340° 6 kt METAR EHKD 180655Z AUTO 34006KT 270V030 9999 NCD 09/03 Q1019 BLU NOSIG
08:25
V
8 °C 10 km+ 4.000 ft 330° 330° 4 kt METAR EHKD 180625Z AUTO 33004KT 300V020 9999 SCT036 BKN040 08/03 Q1018 BLU NOSIG
07:55
V
7 °C 10 km+ - 340° 340° 4 kt METAR EHKD 180555Z AUTO 34004KT 300V020 9999 NCD 07/02 Q1018 BLU NOSIG
Wijziging doorgeven